Date,TemperatureHighF,TemperatureAvgF,TemperatureLowF,DewpointHighF,DewpointAvgF,DewpointLowF,HumidityHigh,HumidityAvg,HumidityLow,PressureMaxIn,PressureMinIn,WindSpeedMaxMPH,WindSpeedAvgMPH,GustSpeedMaxMPH,PrecipitationSumIn
2013-3-1,74.5,56.3,39.8,52.2,45.2,36.6,91,69,41,30.39,30.20,8,1,8,0.00
2013-3-2,73.4,57.7,43.7,54.2,46.8,39.5,88,68,49,30.21,30.02,7,1,7,0.00
2013-3-3,65.5,55.0,47.2,49.3,46.1,42.3,85,73,51,30.07,29.99,13,3,13,0.00
2013-3-4,61.6,50.2,42.1,48.9,43.1,37.6,86,77,59,30.11,30.02,11,2,11,0.00
2013-3-5,60.7,50.5,39.2,44.4,40.4,35.4,90,70,47,30.03,29.79,18,4,18,0.11
2013-3-6,56.2,49.4,37.6,44.9,40.3,32.8,88,72,51,30.04,29.80,17,4,17,0.15
2013-3-7,57.6,47.0,34.4,45.7,37.8,30.5,90,72,47,29.96,29.81,7,1,7,0.04
2013-3-8,66.8,50.3,40.3,47.3,41.4,35.8,90,73,44,30.00,29.78,13,2,13,0.02
2013-3-9,69.1,51.7,36.0,48.0,38.5,32.8,92,65,31,30.26,30.00,11,2,11,0.00
2013-3-10,72.5,53.7,34.4,46.5,35.6,30.4,90,56,24,30.29,30.20,9,1,9,0.00
2013-3-11,76.3,55.5,36.2,47.3,39.0,31.1,85,57,30,30.22,30.05,9,1,9,0.00
2013-3-12,78.5,59.0,39.8,52.6,44.3,34.9,87,61,38,30.11,30.02,9,1,9,0.00
2013-3-13,80.6,61.3,42.7,56.4,48.4,38.6,90,65,42,30.13,30.02,8,1,8,0.00
2013-3-14,77.0,59.6,45.9,57.7,48.5,42.1,90,69,40,30.12,30.04,10,1,11,0.00
2013-3-15,75.4,57.0,43.0,54.8,45.7,38.8,88,68,42,30.10,30.00,9,1,9,0.00
2013-3-16,73.8,57.6,46.6,53.6,46.8,43.0,91,70,41,30.08,29.99,14,2,14,0.00
2013-3-17,71.8,56.1,39.6,49.8,42.6,35.3,88,63,38,30.11,30.00,11,2,11,0.00
2013-3-18,70.0,54.2,38.7,48.9,42.3,34.6,88,66,43,30.09,29.98,9,1,9,0.00
2013-3-19,74.2,55.3,43.7,47.7,43.3,36.5,88,67,38,30.11,30.02,15,2,15,0.07
2013-3-20,65.9,55.7,49.3,55.2,49.7,44.0,91,81,57,30.10,30.02,12,2,12,0.04
2013-3-21,68.0,55.1,42.1,49.0,42.5,37.9,88,65,35,30.09,29.97,11,2,11,0.00
2013-3-22,70.4,54.0,38.0,39.1,30.3,15.1,89,51,13,30.07,29.98,12,2,12,0.00
2013-3-23,71.3,53.1,34.4,40.0,31.9,26.7,80,50,21,30.10,29.99,9,1,9,0.00
2013-3-24,75.2,55.5,37.4,49.0,40.1,31.2,83,59,37,30.05,29.92,9,1,9,0.00
2013-3-25,63.9,51.1,40.0,48.7,41.7,36.1,89,72,48,29.98,29.89,13,2,13,0.00
2013-3-26,71.3,56.4,45.7,50.1,44.5,40.6,85,66,42,29.97,29.88,10,2,10,0.00
2013-3-27,68.8,56.5,45.0,52.8,46.9,39.2,84,71,54,29.98,29.91,13,2,13,0.00
2013-3-28,73.8,61.3,53.6,55.5,52.0,47.5,90,73,51,30.05,29.97,8,1,8,0.07
2013-3-29,78.3,61.9,44.6,55.8,49.3,41.3,92,66,42,30.05,29.96,11,2,11,0.00
2013-3-30,73.1,61.1,54.9,56.4,51.1,48.3,86,71,46,30.03,29.93,10,2,10,0.08
2013-3-31,69.7,59.1,49.3,53.5,50.4,45.7,90,74,45,30.04,29.96,11,2,11,0.18